sensor_id;sensor_type;location;lat;lon;timestamp;pressure;altitude;pressure_sealevel;temperature;humidity
51972;BME280;37991;49.662;10.060;2024-03-29T00:00:37;97684.16;;;3.26;97.96
51972;BME280;37991;49.662;10.060;2024-03-29T00:03:03;97689.22;;;3.28;97.94
51972;BME280;37991;49.662;10.060;2024-03-29T00:05:28;97678.25;;;3.24;97.71
51972;BME280;37991;49.662;10.060;2024-03-29T00:07:54;97674.84;;;3.24;97.48
51972;BME280;37991;49.662;10.060;2024-03-29T00:10:19;97674.66;;;3.27;97.07
51972;BME280;37991;49.662;10.060;2024-03-29T00:12:45;97671.84;;;3.30;96.54
51972;BME280;37991;49.662;10.060;2024-03-29T00:15:10;97675.25;;;3.31;96.48
51972;BME280;37991;49.662;10.060;2024-03-29T00:17:35;97680.84;;;3.37;96.30
51972;BME280;37991;49.662;10.060;2024-03-29T00:20:01;97687.91;;;3.35;95.95
51972;BME280;37991;49.662;10.060;2024-03-29T00:22:28;97679.94;;;3.38;95.43
51972;BME280;37991;49.662;10.060;2024-03-29T00:24:53;97677.34;;;3.38;94.96
51972;BME280;37991;49.662;10.060;2024-03-29T00:27:18;97679.00;;;3.39;95.14
51972;BME280;37991;49.662;10.060;2024-03-29T00:29:44;97660.34;;;3.34;94.69
51972;BME280;37991;49.662;10.060;2024-03-29T00:32:11;97655.50;;;3.30;95.13
51972;BME280;37991;49.662;10.060;2024-03-29T00:34:36;97663.25;;;3.30;95.10
51972;BME280;37991;49.662;10.060;2024-03-29T00:37:02;97659.94;;;3.28;95.20
51972;BME280;37991;49.662;10.060;2024-03-29T00:39:27;97654.25;;;3.22;95.29
51972;BME280;37991;49.662;10.060;2024-03-29T00:41:52;97637.88;;;3.22;95.19
51972;BME280;37991;49.662;10.060;2024-03-29T00:44:18;97628.47;;;3.21;95.16
51972;BME280;37991;49.662;10.060;2024-03-29T00:46:43;97613.88;;;3.20;94.83
51972;BME280;37991;49.662;10.060;2024-03-29T00:49:08;97614.78;;;3.19;94.11
51972;BME280;37991;49.662;10.060;2024-03-29T00:51:34;97623.59;;;3.16;93.92
51972;BME280;37991;49.662;10.060;2024-03-29T00:53:59;97625.56;;;3.13;94.52
51972;BME280;37991;49.662;10.060;2024-03-29T00:56:25;97631.88;;;3.21;94.27
51972;BME280;37991;49.662;10.060;2024-03-29T00:58:50;97630.97;;;3.22;94.38
51972;BME280;37991;49.662;10.060;2024-03-29T01:01:15;97620.81;;;3.19;94.45
51972;BME280;37991;49.662;10.060;2024-03-29T01:03:41;97606.00;;;3.21;94.40
51972;BME280;37991;49.662;10.060;2024-03-29T01:06:06;97605.38;;;3.31;93.48
51972;BME280;37991;49.662;10.060;2024-03-29T01:08:31;97605.91;;;3.36;93.19
51972;BME280;37991;49.662;10.060;2024-03-29T01:10:57;97609.81;;;3.41;92.85
51972;BME280;37991;49.662;10.060;2024-03-29T01:13:22;97609.41;;;3.47;92.82
51972;BME280;37991;49.662;10.060;2024-03-29T01:15:48;97611.56;;;3.54;92.60
51972;BME280;37991;49.662;10.060;2024-03-29T01:18:13;97613.84;;;3.58;92.93
51972;BME280;37991;49.662;10.060;2024-03-29T01:20:38;97614.56;;;3.60;92.94
51972;BME280;37991;49.662;10.060;2024-03-29T01:23:04;97624.72;;;3.63;93.45
51972;BME280;37991;49.662;10.060;2024-03-29T01:25:29;97621.91;;;3.66;93.35
51972;BME280;37991;49.662;10.060;2024-03-29T01:27:55;97601.09;;;3.68;93.90
51972;BME280;37991;49.662;10.060;2024-03-29T01:30:20;97593.13;;;3.71;93.90
51972;BME280;37991;49.662;10.060;2024-03-29T01:32:47;97600.56;;;3.76;94.06
51972;BME280;37991;49.662;10.060;2024-03-29T01:35:12;97590.81;;;3.79;93.20
51972;BME280;37991;49.662;10.060;2024-03-29T01:37:38;97588.59;;;3.86;92.38
51972;BME280;37991;49.662;10.060;2024-03-29T01:40:04;97581.69;;;3.86;92.00
51972;BME280;37991;49.662;10.060;2024-03-29T01:42:30;97584.88;;;3.90;91.51
51972;BME280;37991;49.662;10.060;2024-03-29T01:44:55;97582.69;;;3.96;90.73
51972;BME280;37991;49.662;10.060;2024-03-29T01:47:21;97581.53;;;4.01;90.67
51972;BME280;37991;49.662;10.060;2024-03-29T01:49:46;97582.53;;;4.11;89.52
51972;BME280;37991;49.662;10.060;2024-03-29T01:52:13;97579.72;;;4.14;89.16
51972;BME280;37991;49.662;10.060;2024-03-29T01:54:40;97571.19;;;4.25;88.61
51972;BME280;37991;49.662;10.060;2024-03-29T01:57:06;97563.13;;;4.40;87.54
51972;BME280;37991;49.662;10.060;2024-03-29T01:59:32;97545.94;;;4.51;86.33
51972;BME280;37991;49.662;10.060;2024-03-29T02:01:58;97551.38;;;4.59;86.34
51972;BME280;37991;49.662;10.060;2024-03-29T02:04:24;97537.50;;;4.60;86.28
51972;BME280;37991;49.662;10.060;2024-03-29T02:06:50;97535.03;;;4.70;85.65
51972;BME280;37991;49.662;10.060;2024-03-29T02:09:15;97533.28;;;4.81;84.96
51972;BME280;37991;49.662;10.060;2024-03-29T02:11:40;97536.44;;;4.85;84.79
51972;BME280;37991;49.662;10.060;2024-03-29T02:14:06;97532.81;;;4.87;84.21
51972;BME280;37991;49.662;10.060;2024-03-29T02:16:32;97533.75;;;4.98;84.58
51972;BME280;37991;49.662;10.060;2024-03-29T02:18:57;97546.28;;;5.04;84.05
51972;BME280;37991;49.662;10.060;2024-03-29T02:21:22;97554.69;;;5.07;84.50
51972;BME280;37991;49.662;10.060;2024-03-29T02:23:57;97551.97;;;5.09;85.04
51972;BME280;37991;49.662;10.060;2024-03-29T02:26:22;97549.50;;;5.07;84.50
51972;BME280;37991;49.662;10.060;2024-03-29T02:28:50;97552.09;;;5.19;84.15
51972;BME280;37991;49.662;10.060;2024-03-29T02:31:15;97550.91;;;5.23;83.68
51972;BME280;37991;49.662;10.060;2024-03-29T02:33:40;97545.00;;;5.32;82.97
51972;BME280;37991;49.662;10.060;2024-03-29T02:36:06;97536.88;;;5.36;82.51
51972;BME280;37991;49.662;10.060;2024-03-29T02:38:31;97541.84;;;5.40;82.41
51972;BME280;37991;49.662;10.060;2024-03-29T02:40:56;97535.44;;;5.44;82.38
51972;BME280;37991;49.662;10.060;2024-03-29T02:43:22;97530.84;;;5.47;82.37
51972;BME280;37991;49.662;10.060;2024-03-29T02:45:47;97528.00;;;5.50;82.10
51972;BME280;37991;49.662;10.060;2024-03-29T02:48:12;97527.88;;;5.52;82.69
51972;BME280;37991;49.662;10.060;2024-03-29T02:50:38;97526.00;;;5.54;82.13
51972;BME280;37991;49.662;10.060;2024-03-29T02:53:03;97529.16;;;5.57;82.70
51972;BME280;37991;49.662;10.060;2024-03-29T02:55:29;97519.84;;;5.55;83.56
51972;BME280;37991;49.662;10.060;2024-03-29T02:57:54;97529.41;;;5.54;83.79
51972;BME280;37991;49.662;10.060;2024-03-29T03:00:19;97520.78;;;5.54;83.70
51972;BME280;37991;49.662;10.060;2024-03-29T03:02:45;97509.44;;;5.55;83.61
51972;BME280;37991;49.662;10.060;2024-03-29T03:05:10;97515.84;;;5.62;83.71
51972;BME280;37991;49.662;10.060;2024-03-29T03:07:35;97525.28;;;5.63;83.89
51972;BME280;37991;49.662;10.060;2024-03-29T03:10:19;97520.78;;;5.65;83.10
51972;BME280;37991;49.662;10.060;2024-03-29T03:13:04;97536.47;;;5.75;82.31
51972;BME280;37991;49.662;10.060;2024-03-29T03:15:29;97538.00;;;5.77;81.91
51972;BME280;37991;49.662;10.060;2024-03-29T03:17:55;97544.25;;;5.86;81.59
51972;BME280;37991;49.662;10.060;2024-03-29T03:20:20;97545.06;;;5.87;81.48
51972;BME280;37991;49.662;10.060;2024-03-29T03:22:46;97545.44;;;5.93;81.26
51972;BME280;37991;49.662;10.060;2024-03-29T03:25:11;97539.53;;;5.91;81.51
51972;BME280;37991;49.662;10.060;2024-03-29T03:27:37;97540.44;;;5.90;81.40
51972;BME280;37991;49.662;10.060;2024-03-29T03:30:02;97546.50;;;5.91;81.35
51972;BME280;37991;49.662;10.060;2024-03-29T03:32:28;97554.09;;;5.94;82.05
51972;BME280;37991;49.662;10.060;2024-03-29T03:34:53;97556.44;;;5.97;82.30
51972;BME280;37991;49.662;10.060;2024-03-29T03:37:19;97545.44;;;5.93;81.75
51972;BME280;37991;49.662;10.060;2024-03-29T03:39:44;97548.63;;;5.97;83.00
51972;BME280;37991;49.662;10.060;2024-03-29T03:42:09;97555.72;;;5.95;82.67
51972;BME280;37991;49.662;10.060;2024-03-29T03:44:35;97560.91;;;5.95;83.27
51972;BME280;37991;49.662;10.060;2024-03-29T03:47:02;97556.53;;;5.95;83.38
51972;BME280;37991;49.662;10.060;2024-03-29T03:49:28;97563.84;;;5.90;83.31
51972;BME280;37991;49.662;10.060;2024-03-29T03:51:54;97560.91;;;5.95;83.02
51972;BME280;37991;49.662;10.060;2024-03-29T03:54:19;97561.03;;;5.93;84.25
51972;BME280;37991;49.662;10.060;2024-03-29T03:56:44;97547.66;;;5.87;84.74
51972;BME280;37991;49.662;10.060;2024-03-29T03:59:10;97538.81;;;5.89;85.46
51972;BME280;37991;49.662;10.060;2024-03-29T04:01:35;97540.56;;;5.89;85.36
51972;BME280;37991;49.662;10.060;2024-03-29T04:04:01;97537.97;;;5.89;84.77
51972;BME280;37991;49.662;10.060;2024-03-29T04:06:26;97535.53;;;5.87;85.08
51972;BME280;37991;49.662;10.060;2024-03-29T04:08:51;97544.00;;;5.89;84.46
51972;BME280;37991;49.662;10.060;2024-03-29T04:11:17;97544.25;;;5.86;85.51
51972;BME280;37991;49.662;10.060;2024-03-29T04:13:44;97551.47;;;5.82;86.46
51972;BME280;37991;49.662;10.060;2024-03-29T04:16:10;97567.06;;;5.82;87.08
51972;BME280;37991;49.662;10.060;2024-03-29T04:18:35;97565.28;;;5.83;87.51
51972;BME280;37991;49.662;10.060;2024-03-29T04:21:02;97579.09;;;5.83;87.24
51972;BME280;37991;49.662;10.060;2024-03-29T04:23:27;97574.03;;;5.82;87.82
51972;BME280;37991;49.662;10.060;2024-03-29T04:25:57;97576.50;;;5.83;86.97
51972;BME280;37991;49.662;10.060;2024-03-29T04:28:23;97577.78;;;5.89;86.34
51972;BME280;37991;49.662;10.060;2024-03-29T04:30:59;97573.78;;;5.96;84.67
51972;BME280;37991;49.662;10.060;2024-03-29T04:33:26;97587.97;;;6.03;83.21
51972;BME280;37991;49.662;10.060;2024-03-29T04:38:21;97580.03;;;6.16;79.96
51972;BME280;37991;49.662;10.060;2024-03-29T04:40:50;97591.81;;;6.20;79.34
51972;BME280;37991;49.662;10.060;2024-03-29T04:43:16;97622.41;;;6.28;79.36
51972;BME280;37991;49.662;10.060;2024-03-29T04:45:43;97629.97;;;6.31;79.09
51972;BME280;37991;49.662;10.060;2024-03-29T04:48:11;97616.81;;;6.44;77.36
51972;BME280;37991;49.662;10.060;2024-03-29T04:50:36;97628.59;;;6.59;76.25
51972;BME280;37991;49.662;10.060;2024-03-29T04:53:02;97588.66;;;6.70;76.28
51972;BME280;37991;49.662;10.060;2024-03-29T04:55:27;97628.50;;;6.82;74.45
51972;BME280;37991;49.662;10.060;2024-03-29T04:57:52;97627.16;;;6.87;75.32
51972;BME280;37991;49.662;10.060;2024-03-29T05:00:18;97614.69;;;7.02;73.47
51972;BME280;37991;49.662;10.060;2024-03-29T05:02:43;97587.28;;;7.08;72.74
51972;BME280;37991;49.662;10.060;2024-03-29T05:05:09;97594.78;;;7.22;71.76
51972;BME280;37991;49.662;10.060;2024-03-29T05:07:34;97616.03;;;7.27;72.22
51972;BME280;37991;49.662;10.060;2024-03-29T05:09:59;97616.31;;;7.24;74.05
51972;BME280;37991;49.662;10.060;2024-03-29T05:12:25;97623.44;;;7.22;75.52
51972;BME280;37991;49.662;10.060;2024-03-29T05:14:51;97601.88;;;7.20;75.74
51972;BME280;37991;49.662;10.060;2024-03-29T05:17:16;97593.81;;;7.23;74.44
51972;BME280;37991;49.662;10.060;2024-03-29T05:19:43;97608.22;;;7.27;76.01
51972;BME280;37991;49.662;10.060;2024-03-29T05:22:08;97619.16;;;7.21;80.26
51972;BME280;37991;49.662;10.060;2024-03-29T05:24:34;97609.78;;;7.09;82.49
51972;BME280;37991;49.662;10.060;2024-03-29T05:26:59;97601.66;;;7.02;84.74
51972;BME280;37991;49.662;10.060;2024-03-29T05:29:25;97589.00;;;6.97;85.87
51972;BME280;37991;49.662;10.060;2024-03-29T05:31:50;97598.41;;;6.89;87.89
51972;BME280;37991;49.662;10.060;2024-03-29T05:34:16;97617.97;;;6.83;89.07
51972;BME280;37991;49.662;10.060;2024-03-29T05:36:42;97631.47;;;6.77;91.38
51972;BME280;37991;49.662;10.060;2024-03-29T05:39:09;97626.06;;;6.69;92.95
51972;BME280;37991;49.662;10.060;2024-03-29T05:41:34;97616.03;;;6.64;94.20
51972;BME280;37991;49.662;10.060;2024-03-29T05:43:59;97631.41;;;6.67;95.65
51972;BME280;37991;49.662;10.060;2024-03-29T05:46:25;97618.19;;;6.59;96.57
51972;BME280;37991;49.662;10.060;2024-03-29T05:48:50;97608.72;;;6.58;97.27
51972;BME280;37991;49.662;10.060;2024-03-29T05:51:15;97613.13;;;6.58;98.57
51972;BME280;37991;49.662;10.060;2024-03-29T05:53:41;97612.25;;;6.57;99.40
51972;BME280;37991;49.662;10.060;2024-03-29T05:56:06;97612.66;;;6.52;100.00
51972;BME280;37991;49.662;10.060;2024-03-29T05:58:34;97609.09;;;6.53;100.00
51972;BME280;37991;49.662;10.060;2024-03-29T06:00:59;97612.66;;;6.52;100.00
51972;BME280;37991;49.662;10.060;2024-03-29T06:03:25;97605.66;;;6.53;100.00
51972;BME280;37991;49.662;10.060;2024-03-29T06:05:50;97610.19;;;6.51;100.00
51972;BME280;37991;49.662;10.060;2024-03-29T06:08:15;97614.66;;;6.49;100.00
51972;BME280;37991;49.662;10.060;2024-03-29T06:10:41;97589.88;;;6.45;100.00
51972;BME280;37991;49.662;10.060;2024-03-29T06:13:06;97591.25;;;6.49;100.00
51972;BME280;37991;49.662;10.060;2024-03-29T06:15:33;97584.28;;;6.49;100.00
51972;BME280;37991;49.662;10.060;2024-03-29T06:18:17;97577.28;;;6.50;100.00
51972;BME280;37991;49.662;10.060;2024-03-29T06:20:44;97563.94;;;6.55;100.00
51972;BME280;37991;49.662;10.060;2024-03-29T06:23:10;97565.44;;;6.57;100.00
51972;BME280;37991;49.662;10.060;2024-03-29T06:25:35;97557.75;;;6.56;100.00
51972;BME280;37991;49.662;10.060;2024-03-29T06:28:01;97558.66;;;6.66;100.00
51972;BME280;37991;49.662;10.060;2024-03-29T06:30:26;97566.47;;;6.66;100.00
51972;BME280;37991;49.662;10.060;2024-03-29T06:32:52;97553.91;;;6.71;100.00
51972;BME280;37991;49.662;10.060;2024-03-29T06:35:17;97551.97;;;6.73;100.00
51972;BME280;37991;49.662;10.060;2024-03-29T06:37:45;97547.50;;;6.75;100.00
51972;BME280;37991;49.662;10.060;2024-03-29T06:40:11;97538.88;;;6.74;100.00
51972;BME280;37991;49.662;10.060;2024-03-29T06:42:36;97532.59;;;6.77;100.00
51972;BME280;37991;49.662;10.060;2024-03-29T06:45:02;97548.94;;;6.89;100.00
51972;BME280;37991;49.662;10.060;2024-03-29T06:47:27;97540.50;;;6.96;100.00
51972;BME280;37991;49.662;10.060;2024-03-29T06:49:53;97546.72;;;7.05;100.00
51972;BME280;37991;49.662;10.060;2024-03-29T06:52:18;97543.47;;;7.13;100.00
51972;BME280;37991;49.662;10.060;2024-03-29T06:54:45;97550.50;;;7.22;99.16
51972;BME280;37991;49.662;10.060;2024-03-29T06:57:10;97551.78;;;7.28;100.00
51972;BME280;37991;49.662;10.060;2024-03-29T06:59:40;97546.88;;;7.34;100.00
51972;BME280;37991;49.662;10.060;2024-03-29T07:02:05;97550.16;;;7.36;100.00
51972;BME280;37991;49.662;10.060;2024-03-29T07:04:31;97558.97;;;7.45;98.51
51972;BME280;37991;49.662;10.060;2024-03-29T07:06:56;97560.09;;;7.52;94.67
51972;BME280;37991;49.662;10.060;2024-03-29T07:09:22;97571.38;;;7.62;92.15
51972;BME280;37991;49.662;10.060;2024-03-29T07:11:50;97567.41;;;7.68;91.77
51972;BME280;37991;49.662;10.060;2024-03-29T07:14:16;97565.09;;;7.75;87.67
51972;BME280;37991;49.662;10.060;2024-03-29T07:16:42;97565.84;;;7.86;85.72
51972;BME280;37991;49.662;10.060;2024-03-29T07:19:08;97565.44;;;8.01;82.99
51972;BME280;37991;49.662;10.060;2024-03-29T07:21:33;97566.97;;;8.13;82.14
51972;BME280;37991;49.662;10.060;2024-03-29T07:23:59;97561.66;;;8.24;82.26
51972;BME280;37991;49.662;10.060;2024-03-29T07:26:24;97568.28;;;8.38;81.50
51972;BME280;37991;49.662;10.060;2024-03-29T07:28:50;97575.84;;;8.51;81.14
51972;BME280;37991;49.662;10.060;2024-03-29T07:31:15;97568.00;;;8.60;80.15
51972;BME280;37991;49.662;10.060;2024-03-29T07:33:41;97553.03;;;8.72;78.37
51972;BME280;37991;49.662;10.060;2024-03-29T07:36:06;97543.81;;;8.88;77.17
51972;BME280;37991;49.662;10.060;2024-03-29T07:38:33;97541.56;;;9.02;77.40
51972;BME280;37991;49.662;10.060;2024-03-29T07:40:58;97544.72;;;9.16;76.92
51972;BME280;37991;49.662;10.060;2024-03-29T07:43:23;97536.69;;;9.27;77.50
51972;BME280;37991;49.662;10.060;2024-03-29T07:45:49;97545.84;;;9.41;75.68
51972;BME280;37991;49.662;10.060;2024-03-29T07:48:18;97537.97;;;9.50;75.09
51972;BME280;37991;49.662;10.060;2024-03-29T07:50:45;97526.59;;;9.69;74.58
51972;BME280;37991;49.662;10.060;2024-03-29T07:53:11;97515.13;;;9.80;74.40
51972;BME280;37991;49.662;10.060;2024-03-29T07:55:38;97515.00;;;9.99;73.75
51972;BME280;37991;49.662;10.060;2024-03-29T07:58:04;97521.53;;;10.13;73.76
51972;BME280;37991;49.662;10.060;2024-03-29T08:00:33;97504.72;;;10.34;71.88
51972;BME280;37991;49.662;10.060;2024-03-29T08:02:59;97508.31;;;10.51;69.30
51972;BME280;37991;49.662;10.060;2024-03-29T08:05:26;97507.13;;;10.63;67.90
51972;BME280;37991;49.662;10.060;2024-03-29T08:07:52;97511.88;;;10.67;68.05
51972;BME280;37991;49.662;10.060;2024-03-29T08:10:17;97492.88;;;10.65;68.14
51972;BME280;37991;49.662;10.060;2024-03-29T08:12:43;97483.53;;;10.63;67.62
51972;BME280;37991;49.662;10.060;2024-03-29T08:15:08;97476.00;;;10.60;67.94
51972;BME280;37991;49.662;10.060;2024-03-29T08:17:34;97471.72;;;10.59;67.72
51972;BME280;37991;49.662;10.060;2024-03-29T08:20:00;97460.59;;;10.57;67.89
51972;BME280;37991;49.662;10.060;2024-03-29T08:22:25;97463.84;;;10.59;68.03
51972;BME280;37991;49.662;10.060;2024-03-29T08:24:51;97470.38;;;10.55;69.48
51972;BME280;37991;49.662;10.060;2024-03-29T08:27:16;97473.59;;;10.48;69.53
51972;BME280;37991;49.662;10.060;2024-03-29T08:29:42;97478.72;;;10.50;69.40
51972;BME280;37991;49.662;10.060;2024-03-29T08:32:09;97480.81;;;10.46;70.25
51972;BME280;37991;49.662;10.060;2024-03-29T08:34:36;97507.00;;;10.46;71.00
51972;BME280;37991;49.662;10.060;2024-03-29T08:37:02;97514.00;;;10.46;71.25
51972;BME280;37991;49.662;10.060;2024-03-29T08:39:29;97524.75;;;10.43;71.82
51972;BME280;37991;49.662;10.060;2024-03-29T08:41:54;97538.16;;;10.40;72.34
51972;BME280;37991;49.662;10.060;2024-03-29T08:44:19;97550.06;;;10.34;74.55
51972;BME280;37991;49.662;10.060;2024-03-29T08:46:45;97551.19;;;10.32;73.96
51972;BME280;37991;49.662;10.060;2024-03-29T08:49:10;97551.75;;;10.25;73.08
51972;BME280;37991;49.662;10.060;2024-03-29T08:51:35;97569.38;;;10.23;73.01
51972;BME280;37991;49.662;10.060;2024-03-29T08:54:01;97577.69;;;10.19;74.96
51972;BME280;37991;49.662;10.060;2024-03-29T08:56:30;97587.00;;;10.04;77.62
51972;BME280;37991;49.662;10.060;2024-03-29T08:58:56;97610.69;;;10.02;78.94
51972;BME280;37991;49.662;10.060;2024-03-29T09:01:21;97613.50;;;9.91;79.12
51972;BME280;37991;49.662;10.060;2024-03-29T09:03:47;97624.41;;;9.86;79.05
51972;BME280;37991;49.662;10.060;2024-03-29T09:06:12;97636.66;;;9.76;80.63
51972;BME280;37991;49.662;10.060;2024-03-29T09:08:38;97644.16;;;9.61;80.71
51972;BME280;37991;49.662;10.060;2024-03-29T09:11:03;97659.06;;;9.51;83.42
51972;BME280;37991;49.662;10.060;2024-03-29T09:13:30;97658.78;;;9.35;85.31
51972;BME280;37991;49.662;10.060;2024-03-29T09:15:56;97662.13;;;9.17;86.30
51972;BME280;37991;49.662;10.060;2024-03-29T09:18:21;97670.38;;;8.93;89.30
51972;BME280;37991;49.662;10.060;2024-03-29T09:20:56;97668.31;;;8.77;90.61
51972;BME280;37991;49.662;10.060;2024-03-29T09:23:26;97665.56;;;8.69;91.85
51972;BME280;37991;49.662;10.060;2024-03-29T09:25:57;97670.78;;;8.59;93.08
51972;BME280;37991;49.662;10.060;2024-03-29T09:28:23;97669.13;;;8.49;94.21
51972;BME280;37991;49.662;10.060;2024-03-29T09:30:49;97682.16;;;8.49;95.35
51972;BME280;37991;49.662;10.060;2024-03-29T09:33:14;97679.56;;;8.49;96.33
51972;BME280;37991;49.662;10.060;2024-03-29T09:35:41;97673.91;;;8.44;96.37
51972;BME280;37991;49.662;10.060;2024-03-29T09:38:06;97677.88;;;8.48;97.33
51972;BME280;37991;49.662;10.060;2024-03-29T09:40:34;97677.78;;;8.49;97.63
51972;BME280;37991;49.662;10.060;2024-03-29T09:43:01;97692.03;;;8.45;98.71
51972;BME280;37991;49.662;10.060;2024-03-29T09:45:32;97694.47;;;8.37;99.44
51972;BME280;37991;49.662;10.060;2024-03-29T09:48:00;97694.47;;;8.37;99.80
51972;BME280;37991;49.662;10.060;2024-03-29T09:50:30;97698.84;;;8.36;100.00
51972;BME280;37991;49.662;10.060;2024-03-29T09:52:55;97703.97;;;8.38;100.00
51972;BME280;37991;49.662;10.060;2024-03-29T09:55:22;97707.13;;;8.42;100.00
51972;BME280;37991;49.662;10.060;2024-03-29T09:57:48;97712.22;;;8.43;100.00
51972;BME280;37991;49.662;10.060;2024-03-29T10:00:13;97725.00;;;8.46;100.00
51972;BME280;37991;49.662;10.060;2024-03-29T10:02:39;97715.41;;;8.47;100.00
51972;BME280;37991;49.662;10.060;2024-03-29T10:05:08;97716.09;;;8.49;100.00
51972;BME280;37991;49.662;10.060;2024-03-29T10:07:34;97724.50;;;8.62;100.00
51972;BME280;37991;49.662;10.060;2024-03-29T10:10:02;97718.88;;;8.67;100.00
51972;BME280;37991;49.662;10.060;2024-03-29T10:12:28;97717.91;;;8.77;100.00
51972;BME280;37991;49.662;10.060;2024-03-29T10:14:54;97714.09;;;8.81;100.00
51972;BME280;37991;49.662;10.060;2024-03-29T10:17:34;97718.63;;;8.89;100.00
51972;BME280;37991;49.662;10.060;2024-03-29T10:20:02;97720.69;;;8.95;100.00
51972;BME280;37991;49.662;10.060;2024-03-29T10:22:41;97716.28;;;9.05;100.00
51972;BME280;37991;49.662;10.060;2024-03-29T10:25:06;97703.66;;;9.11;100.00
51972;BME280;37991;49.662;10.060;2024-03-29T10:27:32;97698.84;;;9.16;100.00
51972;BME280;37991;49.662;10.060;2024-03-29T10:29:59;97701.59;;;9.24;100.00
51972;BME280;37991;49.662;10.060;2024-03-29T10:32:24;97684.38;;;9.31;100.00
51972;BME280;37991;49.662;10.060;2024-03-29T10:34:49;97662.53;;;9.32;100.00
51972;BME280;37991;49.662;10.060;2024-03-29T10:37:15;97643.69;;;9.38;100.00
51972;BME280;37991;49.662;10.060;2024-03-29T10:39:44;97636.47;;;9.50;100.00
51972;BME280;37991;49.662;10.060;2024-03-29T10:42:10;97623.53;;;9.58;100.00
51972;BME280;37991;49.662;10.060;2024-03-29T10:44:40;97640.16;;;9.67;100.00
51972;BME280;37991;49.662;10.060;2024-03-29T10:47:07;97643.94;;;9.82;100.00
51972;BME280;37991;49.662;10.060;2024-03-29T10:49:34;97649.00;;;9.93;100.00
51972;BME280;37991;49.662;10.060;2024-03-29T10:52:00;97657.50;;;10.05;100.00
51972;BME280;37991;49.662;10.060;2024-03-29T10:54:30;97658.03;;;10.09;100.00
51972;BME280;37991;49.662;10.060;2024-03-29T10:56:59;97661.47;;;10.09;100.00
51972;BME280;37991;49.662;10.060;2024-03-29T10:59:44;97666.53;;;10.11;100.00
51972;BME280;37991;49.662;10.060;2024-03-29T11:02:13;97661.00;;;10.14;100.00
51972;BME280;37991;49.662;10.060;2024-03-29T11:04:43;97654.53;;;10.18;100.00
51972;BME280;37991;49.662;10.060;2024-03-29T11:07:15;97656.03;;;10.20;100.00
51972;BME280;37991;49.662;10.060;2024-03-29T11:09:46;97650.13;;;10.18;100.00
51972;BME280;37991;49.662;10.060;2024-03-29T11:12:15;97639.66;;;10.18;99.84
51972;BME280;37991;49.662;10.060;2024-03-29T11:14:57;97635.78;;;10.22;99.31
51972;BME280;37991;49.662;10.060;2024-03-29T11:17:25;97635.91;;;10.21;99.27
51972;BME280;37991;49.662;10.060;2024-03-29T11:19:50;97644.06;;;10.28;99.45
51972;BME280;37991;49.662;10.060;2024-03-29T11:22:16;97642.50;;;10.25;100.00
51972;BME280;37991;49.662;10.060;2024-03-29T11:24:41;97654.78;;;10.24;100.00
51972;BME280;37991;49.662;10.060;2024-03-29T11:27:11;97656.97;;;10.29;100.00
51972;BME280;37991;49.662;10.060;2024-03-29T11:29:36;97661.22;;;10.30;100.00
51972;BME280;37991;49.662;10.060;2024-03-29T11:32:07;97664.81;;;10.29;100.00
51972;BME280;37991;49.662;10.060;2024-03-29T11:34:32;97660.94;;;10.33;100.00
51972;BME280;37991;49.662;10.060;2024-03-29T11:37:11;97649.53;;;10.34;100.00
51972;BME280;37991;49.662;10.060;2024-03-29T11:39:38;97642.50;;;10.35;100.00
51972;BME280;37991;49.662;10.060;2024-03-29T11:42:03;97633.22;;;10.40;100.00
51972;BME280;37991;49.662;10.060;2024-03-29T11:44:28;97649.81;;;10.49;100.00
51972;BME280;37991;49.662;10.060;2024-03-29T11:46:57;97646.31;;;10.58;100.00
51972;BME280;37991;49.662;10.060;2024-03-29T11:49:23;97645.59;;;10.66;100.00
51972;BME280;37991;49.662;10.060;2024-03-29T11:51:49;97642.06;;;10.75;100.00
51972;BME280;37991;49.662;10.060;2024-03-29T11:54:14;97657.97;;;10.91;100.00
51972;BME280;37991;49.662;10.060;2024-03-29T11:56:39;97646.19;;;10.96;100.00
51972;BME280;37991;49.662;10.060;2024-03-29T11:59:05;97643.78;;;11.02;100.00
51972;BME280;37991;49.662;10.060;2024-03-29T12:01:30;97637.13;;;11.08;100.00
51972;BME280;37991;49.662;10.060;2024-03-29T12:03:58;97622.44;;;11.15;100.00
51972;BME280;37991;49.662;10.060;2024-03-29T12:06:24;97619.19;;;11.21;100.00
51972;BME280;37991;49.662;10.060;2024-03-29T12:08:50;97607.28;;;11.27;100.00
51972;BME280;37991;49.662;10.060;2024-03-29T12:11:18;97605.00;;;11.32;100.00
51972;BME280;37991;49.662;10.060;2024-03-29T12:13:44;97605.38;;;11.37;99.60
51972;BME280;37991;49.662;10.060;2024-03-29T12:16:10;97603.41;;;11.39;98.80
51972;BME280;37991;49.662;10.060;2024-03-29T12:18:35;97608.53;;;11.40;99.29
51972;BME280;37991;49.662;10.060;2024-03-29T12:21:01;97606.88;;;11.39;98.95
51972;BME280;37991;49.662;10.060;2024-03-29T12:23:27;97610.31;;;11.40;99.04
51972;BME280;37991;49.662;10.060;2024-03-29T12:25:56;97611.28;;;11.39;100.00
51972;BME280;37991;49.662;10.060;2024-03-29T12:28:25;97617.16;;;11.33;100.00
51972;BME280;37991;49.662;10.060;2024-03-29T12:30:51;97628.97;;;11.37;100.00
51972;BME280;37991;49.662;10.060;2024-03-29T12:33:19;97637.97;;;11.34;100.00
51972;BME280;37991;49.662;10.060;2024-03-29T12:35:46;97631.09;;;11.33;100.00
51972;BME280;37991;49.662;10.060;2024-03-29T12:38:16;97625.34;;;11.30;100.00
51972;BME280;37991;49.662;10.060;2024-03-29T12:40:44;97625.63;;;11.27;100.00
51972;BME280;37991;49.662;10.060;2024-03-29T12:43:10;97628.69;;;11.22;100.00
51972;BME280;37991;49.662;10.060;2024-03-29T12:45:38;97639.34;;;11.21;100.00
51972;BME280;37991;49.662;10.060;2024-03-29T12:48:16;97638.66;;;11.18;100.00
51972;BME280;37991;49.662;10.060;2024-03-29T12:50:44;97636.53;;;11.14;100.00
51972;BME280;37991;49.662;10.060;2024-03-29T12:53:12;97640.41;;;11.10;100.00